Lenora, Kansas
Current Conditions -  °F | °C
As of 11:53 PM on Saturday 22 Nov 2014 (Local Time) from KHLC Reporting Station
Overcast Overcast  
Wind Chill: 12°   Ceiling: 1500
Heat Index: 12°   Visibility: 10mi
Dew Point:   Wind: 12mph
Humidity: 83%   Direction: 200°SSW
Pressure: 29.51"   Gusts: NA
Location:  39.61°N, 100°W
Report Text: KHLC 230553Z AUTO 20010KT 10SM OVC015 12/09 A2951 RMK AO2 SLP983 T01220094 10133 20111 401941067 56007
Loading
Personal Weather Stations






























Interactive Weather Map New forecast layout! Learn more

10-Day Weather Forecast

Advertisements
Track Severe Weather on mobile